createdAt,value
2019-04-23T00:01:41.859Z,4.72
2019-04-23T00:04:10.174Z,4.68
2019-04-23T00:07:12.871Z,4.48
2019-04-23T00:09:27.698Z,4.60
2019-04-23T00:11:51.665Z,4.71
2019-04-23T00:14:35.331Z,4.55
2019-04-23T00:16:59.202Z,4.57
2019-04-23T00:19:37.112Z,4.39
2019-04-23T00:22:36.621Z,4.23
2019-04-23T00:25:25.680Z,4.15
2019-04-23T00:30:12.959Z,4.16
2019-04-23T00:32:42.182Z,4.08
2019-04-23T00:35:12.566Z,3.96
2019-04-23T00:37:48.239Z,3.91
2019-04-23T00:40:19.095Z,3.77
2019-04-23T00:42:53.250Z,3.78
2019-04-23T00:45:35.909Z,3.73
2019-04-23T00:47:55.045Z,3.61
2019-04-23T00:50:38.409Z,3.49
2019-04-23T00:53:04.252Z,3.41
2019-04-23T00:55:43.058Z,3.34
2019-04-23T01:00:46.022Z,3.31
2019-04-23T01:03:27.111Z,3.30
2019-04-23T01:05:46.984Z,3.29
2019-04-23T01:08:26.477Z,3.18
2019-04-23T01:13:37.841Z,3.19
2019-04-23T01:18:54.585Z,3.05
2019-04-23T01:21:24.263Z,3.03
2019-04-23T01:24:25.049Z,3.15
2019-04-23T01:27:53.047Z,3.05
2019-04-23T01:30:11.400Z,2.95
2019-04-23T01:37:44.803Z,2.73
2019-04-23T01:40:35.167Z,2.67
2019-04-23T01:42:45.768Z,2.70
2019-04-23T01:45:24.195Z,2.68
2019-04-23T01:47:50.185Z,2.69
2019-04-23T01:52:59.279Z,2.57
2019-04-23T01:58:23.871Z,2.43
2019-04-23T02:03:12.961Z,2.40
2019-04-23T02:05:41.569Z,2.43
2019-04-23T02:08:14.546Z,2.53
2019-04-23T02:10:53.145Z,2.47
2019-04-23T02:13:25.352Z,2.55
2019-04-23T02:16:05.121Z,2.44
2019-04-23T02:18:23.371Z,2.41
2019-04-23T02:20:59.016Z,2.38
2019-04-23T02:28:56.215Z,2.33
2019-04-23T02:31:40.818Z,2.49
2019-04-23T02:36:26.417Z,2.66
2019-04-23T02:38:55.465Z,2.82
2019-04-23T02:44:13.194Z,2.79
2019-04-23T02:46:33.972Z,2.64
2019-04-23T02:51:43.857Z,2.53
2019-04-23T03:01:57.920Z,2.38
2019-04-23T03:04:34.929Z,2.33
2019-04-23T03:07:01.081Z,2.24
2019-04-23T03:12:06.374Z,2.08
2019-04-23T03:14:33.436Z,2.07
2019-04-23T03:17:13.120Z,2.04
2019-04-23T03:20:15.144Z,2.24
2019-04-23T03:22:56.982Z,2.11
2019-04-23T03:25:26.159Z,2.02
2019-04-23T03:32:30.795Z,1.92
2019-04-23T03:38:39.416Z,1.83
2019-04-23T03:41:06.997Z,1.79
2019-04-23T03:43:33.330Z,1.77
2019-04-23T03:46:16.179Z,1.81
2019-04-23T03:48:41.690Z,1.80
2019-04-23T03:51:03.348Z,1.86
2019-04-23T03:53:52.443Z,1.88
2019-04-23T03:56:38.043Z,1.93
2019-04-23T03:58:42.741Z,1.99
2019-04-23T04:01:25.240Z,2.17
2019-04-23T04:06:33.778Z,2.23
2019-04-23T04:14:15.996Z,2.51
2019-04-23T04:16:34.314Z,2.61
2019-04-23T04:19:22.594Z,2.71
2019-04-23T04:24:22.525Z,2.89
2019-04-23T04:41:58.849Z,3.46
2019-04-23T04:46:58.691Z,3.71
2019-04-23T04:49:53.340Z,3.84
2019-04-23T04:54:29.105Z,4.22
2019-04-23T04:57:28.361Z,4.37
2019-04-23T05:00:01.798Z,4.58
2019-04-23T05:02:28.321Z,4.79
2019-04-23T05:05:02.177Z,4.98
2019-04-23T05:07:40.235Z,5.42
2019-04-23T05:10:10.572Z,5.74
2019-04-23T05:12:32.422Z,6.08
2019-04-23T05:15:03.054Z,6.68
2019-04-23T05:18:08.100Z,7.13
2019-04-23T05:20:37.018Z,7.47
2019-04-23T05:23:16.448Z,7.91
2019-04-23T05:25:40.069Z,8.28
2019-04-23T05:30:44.519Z,8.93
2019-04-23T05:33:18.624Z,9.28
2019-04-23T05:43:30.813Z,13.14
2019-04-23T05:45:57.399Z,14.62
2019-04-23T05:48:50.875Z,15.27
2019-04-23T05:51:06.089Z,15.97
2019-04-23T05:53:42.546Z,16.46
2019-04-23T05:58:45.375Z,17.93
2019-04-23T06:04:24.606Z,19.28
2019-04-23T06:06:54.134Z,19.72
2019-04-23T06:09:14.081Z,19.58
2019-04-23T06:14:19.018Z,20.45
2019-04-23T06:17:02.128Z,20.42
2019-04-23T06:24:44.267Z,20.29
2019-04-23T06:32:06.130Z,20.76
2019-04-23T06:34:42.803Z,21.33
2019-04-23T06:37:46.601Z,21.40
2019-04-23T06:42:20.853Z,21.33
2019-04-23T06:47:24.825Z,22.36
2019-04-23T06:49:55.687Z,23.01
2019-04-23T06:52:43.761Z,22.11
2019-04-23T06:55:01.097Z,22.29
2019-04-23T06:57:38.509Z,23.02
2019-04-23T07:00:30.719Z,22.32
2019-04-23T07:02:49.543Z,22.36
2019-04-23T07:05:20.709Z,21.61
2019-04-23T07:07:50.291Z,21.85
2019-04-23T07:10:26.654Z,21.94
2019-04-23T07:12:59.700Z,23.18
2019-04-23T07:15:46.525Z,23.85
2019-04-23T07:18:04.141Z,23.73
2019-04-23T07:20:33.566Z,23.45
2019-04-23T07:25:44.276Z,23.33
2019-04-23T07:28:14.153Z,23.62
2019-04-23T07:30:58.830Z,24.40
2019-04-23T07:33:19.072Z,24.90
2019-04-23T07:35:56.387Z,25.29
2019-04-23T07:39:01.631Z,25.46
2019-04-23T07:41:52.938Z,24.91
2019-04-23T07:44:29.484Z,25.15
2019-04-23T07:47:20.472Z,25.30
2019-04-23T07:50:00.667Z,24.51
2019-04-23T07:55:02.616Z,22.94
2019-04-23T07:57:25.133Z,22.48
2019-04-23T08:00:00.467Z,22.61
2019-04-23T08:02:43.763Z,22.76
2019-04-23T08:07:44.105Z,23.08
2019-04-23T08:10:14.189Z,23.07
2019-04-23T08:12:46.976Z,23.30
2019-04-23T08:15:15.129Z,23.56
2019-04-23T08:17:50.493Z,23.92
2019-04-23T08:20:26.854Z,24.50
2019-04-23T08:22:54.878Z,25.71
2019-04-23T08:25:56.473Z,26.60
2019-04-23T08:28:25.484Z,25.86
2019-04-23T08:30:53.719Z,25.82
2019-04-23T08:33:23.438Z,26.05
2019-04-23T08:35:58.465Z,26.24
2019-04-23T08:38:30.880Z,26.78
2019-04-23T08:41:12.858Z,27.70
2019-04-23T08:43:40.759Z,28.53
2019-04-23T08:46:33.525Z,29.20
2019-04-23T08:49:06.536Z,28.57
2019-04-23T08:51:45.901Z,27.39
2019-04-23T08:54:06.276Z,26.25
2019-04-23T08:56:46.113Z,27.05
2019-04-23T08:59:22.839Z,27.21
2019-04-23T09:02:00.699Z,27.53
2019-04-23T09:04:18.528Z,28.25
2019-04-23T09:07:00.239Z,29.11
2019-04-23T09:09:27.882Z,30.01
2019-04-23T09:11:54.368Z,29.63
2019-04-23T09:14:28.264Z,28.61
2019-04-23T09:17:04.899Z,27.57
2019-04-23T09:19:46.046Z,27.62
2019-04-23T09:22:20.889Z,28.30
2019-04-23T09:27:22.515Z,26.98
2019-04-23T09:30:00.945Z,25.75
2019-04-23T09:47:00.773Z,26.65
2019-04-23T09:52:09.583Z,28.27
2019-04-23T09:54:41.825Z,29.43
2019-04-23T09:57:06.154Z,30.26
2019-04-23T09:59:47.343Z,30.77
2019-04-23T10:02:08.720Z,29.82
2019-04-23T10:04:33.870Z,30.44
2019-04-23T10:07:07.221Z,30.21
2019-04-23T10:09:30.080Z,30.51
2019-04-23T10:12:02.981Z,29.53
2019-04-23T10:14:34.508Z,30.81
2019-04-23T10:17:06.391Z,30.71
2019-04-23T10:19:37.764Z,30.76
2019-04-23T10:22:11.416Z,28.99
2019-04-23T10:24:45.637Z,28.71
2019-04-23T10:27:19.004Z,30.06
2019-04-23T10:29:49.929Z,30.39
2019-04-23T10:32:21.846Z,30.83
2019-04-23T10:35:03.577Z,30.79
2019-04-23T10:37:32.950Z,28.67
2019-04-23T10:40:01.233Z,28.67
2019-04-23T10:42:30.722Z,27.73
2019-04-23T10:45:47.909Z,29.27
2019-04-23T10:49:02.591Z,29.33
2019-04-23T10:51:33.859Z,29.62
2019-04-23T10:54:25.080Z,30.16
2019-04-23T10:59:35.057Z,29.54
2019-04-23T11:10:03.754Z,27.47
2019-04-23T11:13:10.722Z,28.55
2019-04-23T11:18:02.880Z,29.18
2019-04-23T11:20:54.071Z,29.36
2019-04-23T11:23:27.654Z,28.50
2019-04-23T11:26:01.227Z,28.69
2019-04-23T11:31:13.890Z,28.93
2019-04-23T11:33:43.071Z,29.58
2019-04-23T11:36:49.722Z,30.19
2019-04-23T11:41:51.736Z,30.88
2019-04-23T11:49:44.854Z,30.41
2019-04-23T11:52:05.139Z,28.77
2019-04-23T11:54:31.026Z,27.83
2019-04-23T11:57:16.396Z,28.60
2019-04-23T12:02:36.981Z,30.01
2019-04-23T12:05:20.470Z,30.39
2019-04-23T12:08:26.794Z,29.43
2019-04-23T12:14:13.405Z,28.87
2019-04-23T12:16:47.249Z,28.17
2019-04-23T12:19:51.338Z,28.19
2019-04-23T12:21:58.986Z,28.26
2019-04-23T12:24:50.617Z,29.22
2019-04-23T12:27:00.685Z,29.18
2019-04-23T12:29:33.617Z,29.12
2019-04-23T12:32:45.153Z,30.32
2019-04-23T12:37:44.914Z,28.90
2019-04-23T12:40:24.941Z,29.21
2019-04-23T12:43:12.736Z,27.75
2019-04-23T12:45:31.736Z,26.71
2019-04-23T12:48:08.330Z,28.18
2019-04-23T12:53:12.481Z,27.26
2019-04-23T12:55:40.396Z,26.50
2019-04-23T12:58:15.746Z,26.53
2019-04-23T13:00:44.444Z,27.54
2019-04-23T13:03:25.196Z,27.36
2019-04-23T13:05:43.507Z,27.53
2019-04-23T13:08:34.025Z,28.23
2019-04-23T13:10:57.294Z,26.93
2019-04-23T13:16:02.985Z,27.92
2019-04-23T13:18:41.549Z,28.51
2019-04-23T13:21:29.969Z,28.29
2019-04-23T13:23:51.171Z,28.43
2019-04-23T13:26:08.982Z,28.04
2019-04-23T13:28:50.990Z,27.97
2019-04-23T13:31:25.710Z,27.63
2019-04-23T13:33:58.058Z,28.10
2019-04-23T13:36:37.824Z,28.44
2019-04-23T13:39:02.395Z,27.07
2019-04-23T13:41:31.675Z,26.63
2019-04-23T13:44:14.283Z,25.88
2019-04-23T13:46:45.277Z,26.46
2019-04-23T13:49:16.373Z,27.09
2019-04-23T13:51:46.679Z,26.73
2019-04-23T13:54:29.878Z,26.23
2019-04-23T13:59:40.183Z,27.60
2019-04-23T14:02:09.189Z,27.63
2019-04-23T14:07:30.378Z,26.41
2019-04-23T14:10:11.783Z,25.93
2019-04-23T14:12:31.988Z,26.27
2019-04-23T14:15:06.457Z,26.83
2019-04-23T14:17:40.885Z,27.03
2019-04-23T14:20:08.645Z,26.47
2019-04-23T14:25:10.094Z,25.84
2019-04-23T14:28:01.379Z,25.30
2019-04-23T14:30:38.167Z,25.50
2019-04-23T14:32:54.327Z,25.31
2019-04-23T14:35:28.444Z,25.42
2019-04-23T14:38:11.314Z,25.04
2019-04-23T14:40:34.346Z,24.61
2019-04-23T14:46:15.681Z,24.77
2019-04-23T14:51:00.299Z,24.14
2019-04-23T14:53:24.536Z,24.74
2019-04-23T14:56:20.182Z,24.94
2019-04-23T15:01:35.818Z,24.15
2019-04-23T15:04:25.226Z,23.74
2019-04-23T15:09:13.973Z,24.63
2019-04-23T15:11:52.692Z,24.78
2019-04-23T15:14:18.968Z,24.69
2019-04-23T15:16:55.104Z,24.09
2019-04-23T15:19:37.362Z,23.95
2019-04-23T15:22:04.808Z,23.75
2019-04-23T15:29:27.447Z,22.73
2019-04-23T15:32:21.652Z,22.00
2019-04-23T15:34:45.322Z,21.38
2019-04-23T15:37:33.872Z,20.70
2019-04-23T15:39:56.624Z,20.54
2019-04-23T15:42:26.135Z,21.09
2019-04-23T15:52:46.236Z,21.36
2019-04-23T16:00:05.735Z,20.73
2019-04-23T16:02:15.086Z,20.91
2019-04-23T16:04:46.905Z,20.52
2019-04-23T16:07:35.549Z,20.26
2019-04-23T16:10:25.918Z,20.38
2019-04-23T16:12:56.573Z,20.31
2019-04-23T16:15:27.076Z,20.21
2019-04-23T16:18:18.464Z,20.06
2019-04-23T16:20:51.605Z,19.77
2019-04-23T16:23:17.239Z,19.44
2019-04-23T16:25:49.837Z,19.10
2019-04-23T16:28:53.409Z,19.25
2019-04-23T16:31:13.009Z,18.94
2019-04-23T16:33:51.118Z,18.90
2019-04-23T16:36:19.672Z,18.62
2019-04-23T16:38:52.223Z,18.43
2019-04-23T16:41:24.373Z,18.25
2019-04-23T16:43:57.723Z,18.00
2019-04-23T16:46:27.231Z,17.80
2019-04-23T16:49:10.221Z,17.72
2019-04-23T16:54:10.040Z,17.47
2019-04-23T16:56:55.393Z,17.43
2019-04-23T17:01:50.467Z,17.17
2019-04-23T17:04:28.609Z,17.01
2019-04-23T17:09:29.290Z,16.75
2019-04-23T17:14:37.265Z,16.58
2019-04-23T17:16:59.958Z,16.37
2019-04-23T17:20:04.342Z,16.29
2019-04-23T17:22:09.909Z,16.19
2019-04-23T17:24:55.651Z,16.08
2019-04-23T17:29:55.648Z,15.94
2019-04-23T17:32:27.950Z,15.71
2019-04-23T17:37:57.787Z,15.42
2019-04-23T17:40:32.484Z,15.33
2019-04-23T17:43:01.470Z,15.12
2019-04-23T17:50:56.845Z,14.80
2019-04-23T17:53:25.288Z,14.56
2019-04-23T17:56:08.109Z,14.46
2019-04-23T18:03:50.219Z,13.91
2019-04-23T18:08:49.394Z,13.65
2019-04-23T18:11:31.355Z,13.48
2019-04-23T18:13:57.404Z,13.39
2019-04-23T18:16:35.473Z,13.15
2019-04-23T18:21:58.953Z,12.49
2019-04-23T18:27:20.828Z,12.17
2019-04-23T18:29:45.893Z,11.97
2019-04-23T18:32:30.214Z,11.85
2019-04-23T18:37:30.032Z,11.28
2019-04-23T18:39:56.551Z,11.14
2019-04-23T18:42:41.742Z,10.99
2019-04-23T18:45:22.936Z,10.85
2019-04-23T18:47:48.726Z,10.61
2019-04-23T18:50:29.201Z,10.35
2019-04-23T18:52:55.572Z,10.27
2019-04-23T18:55:45.157Z,10.23
2019-04-23T19:00:45.165Z,9.94
2019-04-23T19:03:34.365Z,9.68
2019-04-23T19:06:18.703Z,9.71
2019-04-23T19:08:59.710Z,9.65
2019-04-23T19:11:51.220Z,9.47
2019-04-23T19:14:23.145Z,9.33
2019-04-23T19:17:07.525Z,9.31
2019-04-23T19:19:19.639Z,9.21
2019-04-23T19:22:12.298Z,9.06
2019-04-23T19:29:43.893Z,8.76
2019-04-23T19:32:00.603Z,8.63
2019-04-23T19:37:35.245Z,8.36
2019-04-23T19:39:45.324Z,8.34
2019-04-23T19:42:15.702Z,8.26
2019-04-23T19:47:27.188Z,8.27
2019-04-23T19:49:51.330Z,8.12
2019-04-23T19:52:34.602Z,7.97
2019-04-23T19:57:33.846Z,8.14
2019-04-23T20:02:55.369Z,8.12
2019-04-23T20:05:05.648Z,8.12
2019-04-23T20:07:52.203Z,8.11
2019-04-23T20:10:03.530Z,8.09
2019-04-23T20:13:01.974Z,8.04
2019-04-23T20:15:13.551Z,8.30
2019-04-23T20:20:25.370Z,7.95
2019-04-23T20:22:51.550Z,7.86
2019-04-23T20:25:53.834Z,7.84
2019-04-23T20:31:24.187Z,7.74
2019-04-23T20:34:02.920Z,7.69
2019-04-23T20:36:32.442Z,7.52
2019-04-23T20:39:03.968Z,7.38
2019-04-23T20:41:55.116Z,7.20
2019-04-23T20:44:40.099Z,7.00
2019-04-23T21:00:09.072Z,6.25
2019-04-23T21:05:27.705Z,5.95
2019-04-23T21:08:26.945Z,6.11
2019-04-23T21:10:41.176Z,6.03
2019-04-23T21:13:27.180Z,5.89
2019-04-23T21:15:46.287Z,5.79
2019-04-23T21:25:47.464Z,5.38
2019-04-23T21:28:37.326Z,5.09
2019-04-23T21:31:09.128Z,5.11
2019-04-23T21:33:43.891Z,5.16
2019-04-23T21:39:20.305Z,5.12
2019-04-23T21:44:33.989Z,4.88
2019-04-23T21:47:09.929Z,4.91
2019-04-23T21:49:56.270Z,4.88
2019-04-23T21:52:11.485Z,4.86
2019-04-23T21:54:44.149Z,4.78
2019-04-23T21:57:15.762Z,4.77
2019-04-23T21:59:52.906Z,4.42
2019-04-23T22:02:23.328Z,4.30
2019-04-23T22:04:52.759Z,4.19
2019-04-23T22:07:29.467Z,4.10
2019-04-23T22:09:57.224Z,4.18
2019-04-23T22:12:34.186Z,4.16
2019-04-23T22:15:04.744Z,4.19
2019-04-23T22:17:39.654Z,4.08
2019-04-23T22:20:21.493Z,4.03
2019-04-23T22:22:56.325Z,3.93
2019-04-23T22:25:13.058Z,3.70
2019-04-23T22:27:54.759Z,3.53
2019-04-23T22:30:30.456Z,3.48
2019-04-23T22:33:03.245Z,3.52
2019-04-23T22:35:34.879Z,3.56
2019-04-23T22:38:13.058Z,3.43
2019-04-23T22:40:34.383Z,3.33
2019-04-23T22:43:20.575Z,3.18
2019-04-23T22:50:59.333Z,3.25
2019-04-23T22:55:57.277Z,2.94
2019-04-23T22:58:27.708Z,2.87
2019-04-23T23:01:45.177Z,2.77
2019-04-23T23:04:08.752Z,2.64
2019-04-23T23:06:49.426Z,2.57
2019-04-23T23:09:23.192Z,2.53
2019-04-23T23:11:50.512Z,2.69
2019-04-23T23:16:50.353Z,2.60
2019-04-23T23:19:46.336Z,2.49
2019-04-23T23:29:27.675Z,2.39
2019-04-23T23:34:54.194Z,2.31
2019-04-23T23:37:07.146Z,2.48
2019-04-23T23:42:18.117Z,2.35
2019-04-23T23:47:14.881Z,2.42
2019-04-23T23:49:56.903Z,2.40
2019-04-23T23:52:25.425Z,2.40
2019-04-23T23:54:59.403Z,2.65
2019-04-23T23:57:23.464Z,2.73
